Time;durP1;ratioP1;P1;durP2;ratioP2;P2;SDS_P1;SDS_P2;PMS_P1;PMS_P2;Temp;Humidity;BMP_temperature;BMP_pressure;BME280_temperature;BME280_humidity;BME280_pressure;Samples;Min_cycle;Max_cycle;Signal;HPM_P1;HPM_P2
2023/12/28 00:02:20;;;;;;;5.82;1.85;;;21.00;81.10;;;;;;5013066;28;20214;-58
2023/12/28 00:04:51;;;;;;;6.40;1.83;;;21.10;81.10;;;;;;5014729;28;20200;-56
2023/12/28 00:07:18;;;;;;;4.00;2.42;;;21.00;81.10;;;;;;5010787;28;20191;-53
2023/12/28 00:09:52;;;;;;;4.78;2.10;;;21.00;81.00;;;;;;5013881;28;20227;-59
2023/12/28 00:12:23;;;;;;;7.27;2.13;;;21.00;81.00;;;;;;5010559;28;20234;-55
2023/12/28 00:14:49;;;;;;;3.90;1.40;;;21.00;81.00;;;;;;5013337;28;20550;-57
2023/12/28 00:17:16;;;;;;;5.10;2.55;;;21.00;81.00;;;;;;5014057;28;20686;-58
2023/12/28 00:19:46;;;;;;;3.03;1.50;;;21.00;80.90;;;;;;5011742;28;20223;-54
2023/12/28 00:22:16;;;;;;;3.92;1.55;;;21.00;80.90;;;;;;5013836;28;20210;-57
2023/12/28 00:24:46;;;;;;;5.78;1.58;;;21.00;81.00;;;;;;5006429;28;20195;-59
2023/12/28 00:27:13;;;;;;;4.10;1.38;;;20.90;80.80;;;;;;5012906;28;20206;-58
2023/12/28 00:29:41;;;;;;;4.03;1.55;;;20.90;80.80;;;;;;5006482;28;20211;-59
2023/12/28 00:32:07;;;;;;;7.55;2.10;;;20.90;80.90;;;;;;5014452;28;20226;-58
2023/12/28 00:34:37;;;;;;;2.85;1.90;;;20.90;80.80;;;;;;5014483;28;20534;-56
2023/12/28 00:37:06;;;;;;;2.75;1.48;;;20.90;80.90;;;;;;5012213;28;20950;-55
2023/12/28 00:39:38;;;;;;;3.17;2.23;;;20.90;80.90;;;;;;5010082;28;20211;-56
2023/12/28 00:42:07;;;;;;;5.13;1.67;;;20.90;80.80;;;;;;5013156;28;20467;-57
2023/12/28 00:44:33;;;;;;;3.40;1.45;;;20.90;80.80;;;;;;5010708;28;20195;-58
2023/12/28 00:47:02;;;;;;;5.05;1.70;;;20.90;80.80;;;;;;5009798;28;20204;-56
2023/12/28 00:49:29;;;;;;;2.03;1.20;;;20.90;80.70;;;;;;5012359;28;20207;-59
2023/12/28 00:51:55;;;;;;;1.40;1.25;;;20.90;80.80;;;;;;5013715;28;20615;-56
2023/12/28 00:54:22;;;;;;;11.10;2.13;;;20.90;80.80;;;;;;5008166;28;20203;-56
2023/12/28 00:56:59;;;;;;;2.85;1.30;;;20.90;80.90;;;;;;5011866;28;20201;-56
2023/12/28 00:59:25;;;;;;;2.80;1.65;;;20.80;80.90;;;;;;5010193;28;21665;-56
2023/12/28 01:01:52;;;;;;;3.55;1.52;;;20.80;80.80;;;;;;5012116;28;20683;-57
2023/12/28 01:04:22;;;;;;;6.15;2.22;;;20.80;80.80;;;;;;5010762;28;20220;-58
2023/12/28 01:06:49;;;;;;;1.50;1.30;;;20.80;80.70;;;;;;5010725;28;20683;-55
2023/12/28 01:09:16;;;;;;;3.75;1.90;;;20.80;80.80;;;;;;5012391;28;20212;-59
2023/12/28 01:11:47;;;;;;;6.05;2.58;;;20.80;80.70;;;;;;5009535;28;20287;-57
2023/12/28 01:14:17;;;;;;;1.60;1.30;;;20.80;80.80;;;;;;5014591;28;20214;-58
2023/12/28 01:16:44;;;;;;;3.42;1.88;;;20.80;80.80;;;;;;5011821;28;20553;-56
2023/12/28 01:19:13;;;;;;;2.28;1.17;;;20.80;80.70;;;;;;5011385;28;20703;-56
2023/12/28 01:21:41;;;;;;;2.47;1.30;;;20.80;80.90;;;;;;5011714;28;20202;-56
2023/12/28 01:24:07;;;;;;;1.95;1.45;;;20.70;81.00;;;;;;5013731;28;20206;-58
2023/12/28 01:26:34;;;;;;;6.47;1.77;;;20.70;80.80;;;;;;5009538;28;20204;-56
2023/12/28 01:29:10;;;;;;;2.60;1.45;;;20.70;80.90;;;;;;5010782;28;20330;-58
2023/12/28 01:31:41;;;;;;;3.75;1.85;;;20.70;80.70;;;;;;5012759;28;20195;-57
2023/12/28 01:34:09;;;;;;;2.95;1.50;;;20.70;80.90;;;;;;5013608;28;21068;-59
2023/12/28 01:36:41;;;;;;;2.95;1.42;;;20.70;80.80;;;;;;5012018;28;20719;-59
2023/12/28 01:39:10;;;;;;;4.93;1.77;;;20.70;80.90;;;;;;5011117;28;20824;-56
2023/12/28 01:41:37;;;;;;;2.65;1.42;;;20.70;80.70;;;;;;5011530;28;20205;-54
2023/12/28 01:44:05;;;;;;;1.50;1.40;;;20.70;81.00;;;;;;5009173;28;20767;-57
2023/12/28 01:46:39;;;;;;;4.80;1.30;;;20.70;80.70;;;;;;5008207;28;20744;-57
2023/12/28 01:49:09;;;;;;;3.83;1.33;;;20.60;80.70;;;;;;5012620;28;20203;-58
2023/12/28 01:51:38;;;;;;;4.32;1.10;;;20.70;80.90;;;;;;5011520;28;20334;-55
2023/12/28 01:54:04;;;;;;;4.03;1.53;;;20.60;80.70;;;;;;5010581;28;20200;-58
2023/12/28 01:56:37;;;;;;;2.40;1.35;;;20.60;80.70;;;;;;5011039;28;20946;-57
2023/12/28 01:59:07;;;;;;;1.50;1.30;;;20.60;80.90;;;;;;5012705;28;20218;-55
2023/12/28 02:01:34;;;;;;;1.65;1.20;;;20.60;80.80;;;;;;5012821;28;20204;-56
2023/12/28 02:04:01;;;;;;;2.05;1.30;;;20.60;80.80;;;;;;5011328;28;20200;-58
2023/12/28 02:06:29;;;;;;;1.95;1.35;;;20.60;80.90;;;;;;5010984;28;20602;-56
2023/12/28 02:08:56;;;;;;;2.78;1.27;;;20.60;80.80;;;;;;5011154;28;20207;-55
2023/12/28 02:11:26;;;;;;;3.65;1.20;;;20.60;80.80;;;;;;5008527;28;20220;-58
2023/12/28 02:13:52;;;;;;;1.50;1.30;;;20.60;80.80;;;;;;5011525;28;20195;-57
2023/12/28 02:16:31;;;;;;;2.22;1.10;;;20.60;80.70;;;;;;5008165;28;20202;-55
2023/12/28 02:19:04;;;;;;;1.80;1.30;;;20.60;80.80;;;;;;5010896;28;20201;-54
2023/12/28 02:21:35;;;;;;;2.28;1.17;;;20.60;80.80;;;;;;5008842;28;20191;-56
2023/12/28 02:24:03;;;;;;;2.40;1.00;;;20.60;81.00;;;;;;5011161;28;20203;-56
2023/12/28 02:26:31;;;;;;;1.63;1.00;;;20.60;80.70;;;;;;5006825;28;20196;-57
2023/12/28 02:29:01;;;;;;;1.35;1.20;;;20.50;80.80;;;;;;5005382;28;20196;-57
2023/12/28 02:31:35;;;;;;;1.77;1.63;;;20.60;81.00;;;;;;5010452;28;20972;-56
2023/12/28 02:34:13;;;;;;;2.60;1.80;;;20.50;81.10;;;;;;5010819;28;20203;-55
2023/12/28 02:36:45;;;;;;;4.30;2.38;;;20.50;81.10;;;;;;5007139;28;20406;-58
2023/12/28 02:39:15;;;;;;;1.65;1.20;;;20.50;80.90;;;;;;5011168;28;20789;-56
2023/12/28 02:41:44;;;;;;;2.15;1.50;;;20.50;81.00;;;;;;5011418;28;20199;-57
2023/12/28 02:44:11;;;;;;;4.38;1.10;;;20.60;81.00;;;;;;5012534;28;20206;-56
2023/12/28 02:46:38;;;;;;;2.00;1.25;;;20.50;80.90;;;;;;5008582;28;20623;-56
2023/12/28 02:49:06;;;;;;;4.07;1.40;;;20.50;80.90;;;;;;5012073;28;20210;-57
2023/12/28 02:51:33;;;;;;;1.75;1.30;;;20.50;80.90;;;;;;5010640;28;20204;-57
2023/12/28 02:54:02;;;;;;;1.50;1.40;;;20.50;81.00;;;;;;5006688;28;20204;-57
2023/12/28 02:56:29;;;;;;;1.10;1.00;;;20.50;80.80;;;;;;5013954;28;23207;-57
2023/12/28 02:58:59;;;;;;;4.35;1.35;;;20.50;80.90;;;;;;5009538;28;20194;-57
2023/12/28 03:01:29;;;;;;;2.35;1.38;;;20.40;80.80;;;;;;5006823;28;20202;-55
2023/12/28 03:03:58;;;;;;;2.50;1.40;;;20.40;80.70;;;;;;5012776;28;20203;-57
2023/12/28 03:06:27;;;;;;;2.28;1.30;;;20.40;81.00;;;;;;5011906;28;20230;-57
2023/12/28 03:08:53;;;;;;;1.33;1.02;;;20.40;81.00;;;;;;5012196;28;20287;-56
2023/12/28 03:11:22;;;;;;;2.25;1.10;;;20.40;81.00;;;;;;5009778;28;20188;-56
2023/12/28 03:13:49;;;;;;;1.90;1.05;;;20.40;80.90;;;;;;5009890;28;20337;-55
2023/12/28 03:16:18;;;;;;;1.73;1.00;;;20.40;80.90;;;;;;5009813;28;20199;-55
2023/12/28 03:18:45;;;;;;;1.35;1.10;;;20.40;80.90;;;;;;5013700;28;20211;-56
2023/12/28 03:21:12;;;;;;;3.90;1.40;;;20.40;80.90;;;;;;5018017;28;20219;-54
2023/12/28 03:23:40;;;;;;;1.25;1.00;;;20.40;80.90;;;;;;5013982;28;20206;-55
2023/12/28 03:26:08;;;;;;;1.13;0.98;;;20.40;81.10;;;;;;5018157;28;20563;-56
2023/12/28 03:28:35;;;;;;;2.28;1.25;;;20.40;80.90;;;;;;5017835;28;20443;-55
2023/12/28 03:31:06;;;;;;;2.00;1.20;;;20.40;81.00;;;;;;5016130;28;20199;-56
2023/12/28 03:33:37;;;;;;;1.85;1.13;;;20.40;80.80;;;;;;5015409;28;20230;-52
2023/12/28 03:36:07;;;;;;;2.10;1.20;;;20.40;81.10;;;;;;5017841;28;20191;-53
2023/12/28 03:38:34;;;;;;;2.42;1.10;;;20.40;80.90;;;;;;5015663;28;22233;-55
2023/12/28 03:41:04;;;;;;;3.95;1.67;;;20.40;80.90;;;;;;5015405;28;20261;-56
2023/12/28 03:43:32;;;;;;;1.73;1.10;;;20.30;81.20;;;;;;5015719;28;20218;-56
2023/12/28 03:46:01;;;;;;;1.20;0.90;;;20.30;80.90;;;;;;5017110;28;20199;-58
2023/12/28 03:48:28;;;;;;;1.85;1.10;;;20.30;80.90;;;;;;5016129;28;20621;-55
2023/12/28 03:50:57;;;;;;;1.10;1.00;;;20.30;81.00;;;;;;5018490;28;20206;-55
2023/12/28 03:53:24;;;;;;;3.13;1.10;;;20.30;81.20;;;;;;5016621;28;20194;-55
2023/12/28 03:55:52;;;;;;;1.65;1.10;;;20.30;81.20;;;;;;5016490;28;20380;-57
2023/12/28 03:58:21;;;;;;;1.90;1.20;;;20.30;81.00;;;;;;5014680;28;20207;-55
2023/12/28 04:00:47;;;;;;;1.85;1.08;;;20.30;81.00;;;;;;5014450;28;20222;-58
2023/12/28 04:03:16;;;;;;;1.35;0.98;;;20.30;81.00;;;;;;5013556;28;20210;-56
2023/12/28 04:05:45;;;;;;;2.92;1.10;;;20.30;81.20;;;;;;5015284;28;20202;-56
2023/12/28 04:08:16;;;;;;;1.10;0.80;;;20.30;81.00;;;;;;5015603;28;20195;-55
2023/12/28 04:10:42;;;;;;;1.67;1.10;;;20.30;80.90;;;;;;5013521;28;20201;-55
2023/12/28 04:13:15;;;;;;;1.63;1.20;;;20.30;80.90;;;;;;5016053;28;20682;-57
2023/12/28 04:15:42;;;;;;;2.70;1.10;;;20.30;81.00;;;;;;5011865;28;20671;-56
2023/12/28 04:18:09;;;;;;;1.50;1.20;;;20.30;81.00;;;;;;5015068;28;20282;-56
2023/12/28 04:20:36;;;;;;;1.27;1.05;;;20.30;81.20;;;;;;5014256;28;20797;-59
2023/12/28 04:23:04;;;;;;;3.10;1.52;;;20.20;81.00;;;;;;5014536;28;20508;-55
2023/12/28 04:25:32;;;;;;;1.45;0.90;;;20.20;80.90;;;;;;5012402;28;20195;-58
2023/12/28 04:27:59;;;;;;;1.35;0.90;;;20.30;81.20;;;;;;5013004;28;20203;-57
2023/12/28 04:30:28;;;;;;;1.63;1.10;;;20.20;81.00;;;;;;5010870;28;20227;-56
2023/12/28 04:32:55;;;;;;;2.33;1.20;;;20.20;81.10;;;;;;5011909;28;20202;-55
2023/12/28 04:35:22;;;;;;;1.20;1.02;;;20.20;81.00;;;;;;5011454;28;20652;-55
2023/12/28 04:37:50;;;;;;;1.58;1.05;;;20.20;81.10;;;;;;5012955;28;20253;-59
2023/12/28 04:40:20;;;;;;;1.30;1.00;;;20.20;81.10;;;;;;5011078;28;21121;-60
2023/12/28 04:42:56;;;;;;;1.60;1.08;;;20.20;81.10;;;;;;5011504;28;20612;-59
2023/12/28 04:45:23;;;;;;;1.92;0.90;;;20.20;81.10;;;;;;5009797;28;20211;-59
2023/12/28 04:47:51;;;;;;;1.10;1.00;;;20.20;81.00;;;;;;5012380;28;20211;-59
2023/12/28 04:50:17;;;;;;;1.10;0.90;;;20.20;81.00;;;;;;5011381;28;20440;-59
2023/12/28 04:52:44;;;;;;;1.02;0.80;;;20.20;80.90;;;;;;5012219;28;20671;-61
2023/12/28 04:55:11;;;;;;;1.30;0.98;;;20.20;81.00;;;;;;5007195;28;20647;-60
2023/12/28 04:57:38;;;;;;;1.02;0.80;;;20.20;81.10;;;;;;5012673;28;20204;-59
2023/12/28 05:00:09;;;;;;;1.40;0.95;;;20.20;81.10;;;;;;5010798;28;20216;-58
2023/12/28 05:02:35;;;;;;;1.40;0.90;;;20.20;81.20;;;;;;5009974;28;20200;-59
2023/12/28 05:05:04;;;;;;;1.67;1.10;;;20.10;81.00;;;;;;5011973;28;20540;-59
2023/12/28 05:07:30;;;;;;;1.50;1.15;;;20.10;81.00;;;;;;5012669;28;20202;-57
2023/12/28 05:09:57;;;;;;;1.60;1.10;;;20.20;81.10;;;;;;5008820;28;23538;-59
2023/12/28 05:12:26;;;;;;;1.23;0.98;;;20.10;81.00;;;;;;5008038;28;20261;-56
2023/12/28 05:14:53;;;;;;;1.83;1.00;;;20.10;81.00;;;;;;5013335;28;20643;-59
2023/12/28 05:17:21;;;;;;;2.00;0.90;;;20.10;81.00;;;;;;5016149;28;20195;-54
2023/12/28 05:19:48;;;;;;;1.70;1.45;;;20.10;80.90;;;;;;5014352;28;20231;-57
2023/12/28 05:22:14;;;;;;;1.40;0.98;;;20.20;81.30;;;;;;5014146;28;20857;-56
2023/12/28 05:24:43;;;;;;;1.65;1.20;;;20.10;81.10;;;;;;5014635;28;20706;-60
2023/12/28 05:27:10;;;;;;;1.80;1.13;;;20.10;81.10;;;;;;5014370;28;20199;-58
2023/12/28 05:29:36;;;;;;;1.40;0.90;;;20.10;81.00;;;;;;5015061;28;20203;-57
2023/12/28 05:32:17;;;;;;;1.10;0.80;;;20.10;81.10;;;;;;5015100;28;21034;-58
2023/12/28 05:34:45;;;;;;;1.58;1.30;;;20.10;81.10;;;;;;5015917;28;20218;-59
2023/12/28 05:37:12;;;;;;;1.30;0.90;;;20.10;81.00;;;;;;5008280;28;20213;-56
2023/12/28 05:39:42;;;;;;;1.58;1.10;;;20.10;81.10;;;;;;5008659;28;20559;-58
2023/12/28 05:42:08;;;;;;;1.00;0.80;;;20.10;81.70;;;;;;5008094;28;20223;-58
2023/12/28 05:44:35;;;;;;;1.42;0.90;;;20.10;81.00;;;;;;5009479;28;20199;-57
2023/12/28 05:47:03;;;;;;;1.40;1.00;;;20.10;81.00;;;;;;5011792;28;20563;-58
2023/12/28 05:49:35;;;;;;;1.48;0.80;;;20.10;81.10;;;;;;5010689;28;20243;-58
2023/12/28 05:52:06;;;;;;;2.08;1.02;;;20.10;81.00;;;;;;5011477;28;20614;-59
2023/12/28 05:54:33;;;;;;;1.85;0.80;;;20.10;81.10;;;;;;5003419;28;20195;-57
2023/12/28 05:57:02;;;;;;;1.58;1.20;;;20.10;81.10;;;;;;5005665;28;20354;-54
2023/12/28 05:59:31;;;;;;;1.92;1.20;;;20.10;81.20;;;;;;5004513;28;20626;-58
2023/12/28 06:02:00;;;;;;;1.10;0.90;;;20.00;81.10;;;;;;5015858;28;20219;-57
2023/12/28 06:04:26;;;;;;;1.25;0.80;;;20.00;81.10;;;;;;5013833;28;20644;-59
2023/12/28 06:06:56;;;;;;;1.00;0.80;;;20.00;81.10;;;;;;5013890;28;20207;-55
2023/12/28 06:09:24;;;;;;;1.55;1.10;;;20.10;81.20;;;;;;5010685;28;20214;-57
2023/12/28 06:11:53;;;;;;;1.10;0.80;;;20.00;81.50;;;;;;5007673;28;20199;-58
2023/12/28 06:14:21;;;;;;;2.05;1.00;;;20.00;81.20;;;;;;5004718;28;20456;-56
2023/12/28 06:16:48;;;;;;;1.30;1.10;;;20.00;81.10;;;;;;5008231;28;20287;-58
2023/12/28 06:19:16;;;;;;;1.20;0.90;;;20.00;81.20;;;;;;5008761;28;20834;-58
2023/12/28 06:21:43;;;;;;;1.00;0.82;;;20.00;81.10;;;;;;5010675;28;20245;-58
2023/12/28 06:24:12;;;;;;;1.08;0.90;;;20.00;81.00;;;;;;5006633;28;20782;-59
2023/12/28 06:26:41;;;;;;;1.85;1.10;;;20.00;81.10;;;;;;5009159;28;20668;-54
2023/12/28 06:29:11;;;;;;;1.23;0.80;;;20.10;81.30;;;;;;5005250;28;20667;-59
2023/12/28 06:31:38;;;;;;;2.05;1.35;;;20.00;81.10;;;;;;5011487;28;20413;-60
2023/12/28 06:34:07;;;;;;;1.00;0.85;;;20.00;81.00;;;;;;5009822;28;20606;-59
2023/12/28 06:36:34;;;;;;;1.42;0.98;;;20.00;81.10;;;;;;5010313;28;20214;-60
2023/12/28 06:39:01;;;;;;;1.10;0.98;;;20.00;81.30;;;;;;5012375;28;20210;-55
2023/12/28 06:41:28;;;;;;;1.00;0.70;;;20.00;81.10;;;;;;5008480;28;20223;-57
2023/12/28 06:43:56;;;;;;;1.38;1.00;;;20.00;81.20;;;;;;5006348;28;20191;-60
2023/12/28 06:46:22;;;;;;;1.25;1.02;;;20.00;81.20;;;;;;5011783;28;20207;-59
2023/12/28 06:48:53;;;;;;;1.10;0.80;;;20.00;81.20;;;;;;5012563;28;20203;-55
2023/12/28 06:51:21;;;;;;;1.20;1.10;;;19.90;81.10;;;;;;5011958;28;20202;-57
2023/12/28 06:53:56;;;;;;;1.35;1.10;;;19.90;81.00;;;;;;5006437;28;20227;-61
2023/12/28 06:56:23;;;;;;;2.75;0.80;;;19.90;81.20;;;;;;5008418;28;20270;-58
2023/12/28 06:58:52;;;;;;;1.43;1.07;;;19.90;81.10;;;;;;5009522;28;20196;-60
2023/12/28 07:01:22;;;;;;;1.00;0.90;;;19.90;81.10;;;;;;5012281;28;20497;-56
2023/12/28 07:03:52;;;;;;;1.92;0.95;;;19.90;81.20;;;;;;5008138;28;20204;-57
2023/12/28 07:06:19;;;;;;;1.00;0.85;;;19.90;81.10;;;;;;5013978;28;20666;-60
2023/12/28 07:08:50;;;;;;;1.30;1.20;;;19.90;81.10;;;;;;5010835;28;20429;-59
2023/12/28 07:11:18;;;;;;;1.20;1.10;;;19.90;81.20;;;;;;5013259;28;20195;-59
2023/12/28 07:13:54;;;;;;;1.30;1.20;;;19.90;81.30;;;;;;5010557;28;21323;-58
2023/12/28 07:16:22;;;;;;;1.55;1.15;;;19.90;81.20;;;;;;5013740;28;20283;-60
2023/12/28 07:18:51;;;;;;;1.48;1.08;;;19.90;81.00;;;;;;5007069;28;20661;-59
2023/12/28 07:21:24;;;;;;;1.10;0.80;;;19.90;81.10;;;;;;5011600;28;20765;-58
2023/12/28 07:23:50;;;;;;;1.58;1.25;;;19.90;81.10;;;;;;5010517;28;20207;-59
2023/12/28 07:26:17;;;;;;;1.45;1.13;;;19.90;81.10;;;;;;5012206;28;20199;-60
2023/12/28 07:28:48;;;;;;;1.10;0.82;;;19.80;81.10;;;;;;5007783;28;20203;-59
2023/12/28 07:31:25;;;;;;;1.30;1.00;;;19.80;81.10;;;;;;5009689;28;20275;-57
2023/12/28 07:33:55;;;;;;;1.02;0.80;;;19.80;81.40;;;;;;5010248;28;20202;-59
2023/12/28 07:36:27;;;;;;;1.38;1.00;;;19.80;81.10;;;;;;5009486;28;20195;-59
2023/12/28 07:38:57;;;;;;;1.15;0.90;;;19.90;81.60;;;;;;5010173;28;20206;-58
2023/12/28 07:41:23;;;;;;;1.73;0.90;;;19.80;81.40;;;;;;5008885;28;20571;-58
2023/12/28 07:43:50;;;;;;;2.13;1.00;;;19.90;81.70;;;;;;5005743;28;20210;-57
2023/12/28 07:46:19;;;;;;;1.45;1.00;;;19.90;81.70;;;;;;5005416;28;20346;-59
2023/12/28 07:48:47;;;;;;;1.10;1.00;;;19.90;81.60;;;;;;5009872;28;20563;-59
2023/12/28 07:51:14;;;;;;;1.00;0.70;;;19.90;81.80;;;;;;5010220;28;20291;-59
2023/12/28 07:53:41;;;;;;;1.00;0.80;;;19.90;81.80;;;;;;5008984;28;20199;-57
2023/12/28 07:56:11;;;;;;;1.25;1.00;;;20.00;81.80;;;;;;5008902;28;20603;-57
2023/12/28 07:58:39;;;;;;;1.00;0.90;;;20.00;82.00;;;;;;5007156;28;20903;-57
2023/12/28 08:01:10;;;;;;;1.00;0.80;;;20.00;82.00;;;;;;5000480;28;20242;-55
2023/12/28 08:03:41;;;;;;;1.55;0.73;;;20.00;81.80;;;;;;5009269;28;20196;-56
2023/12/28 08:06:16;;;;;;;1.15;1.00;;;20.00;81.70;;;;;;5012011;28;20199;-58
2023/12/28 08:08:42;;;;;;;1.00;0.80;;;20.10;81.90;;;;;;5013801;28;20760;-56
2023/12/28 08:11:12;;;;;;;1.00;0.75;;;20.10;81.80;;;;;;5010801;28;20204;-57
2023/12/28 08:13:41;;;;;;;1.50;0.90;;;20.10;81.80;;;;;;5011830;28;20490;-58
2023/12/28 08:16:08;;;;;;;1.00;0.80;;;20.10;81.80;;;;;;5009407;28;20472;-58
2023/12/28 08:18:37;;;;;;;1.15;0.85;;;20.10;81.70;;;;;;5014981;28;20207;-55
2023/12/28 08:21:06;;;;;;;1.30;1.00;;;20.10;81.80;;;;;;5013790;28;20261;-56
2023/12/28 08:23:37;;;;;;;0.93;0.70;;;20.10;81.70;;;;;;5014039;28;20210;-55
2023/12/28 08:26:04;;;;;;;2.20;0.90;;;20.10;81.70;;;;;;5013725;28;20200;-56
2023/12/28 08:28:31;;;;;;;1.05;0.77;;;20.20;81.90;;;;;;5011323;28;20360;-57
2023/12/28 08:31:00;;;;;;;1.00;0.80;;;20.20;81.70;;;;;;5007163;28;20196;-56
2023/12/28 08:33:27;;;;;;;1.20;0.77;;;20.20;81.70;;;;;;5012690;28;20207;-57
2023/12/28 08:35:54;;;;;;;1.00;0.80;;;20.20;81.80;;;;;;5013943;28;20204;-57
2023/12/28 08:38:21;;;;;;;1.20;1.00;;;20.20;81.70;;;;;;5015576;28;20195;-57
2023/12/28 08:40:49;;;;;;;0.98;0.75;;;20.20;81.80;;;;;;5010912;28;20200;-59
2023/12/28 08:43:16;;;;;;;1.38;1.27;;;20.30;81.80;;;;;;5014266;28;20884;-55
2023/12/28 08:45:44;;;;;;;1.00;0.70;;;20.30;81.90;;;;;;5013684;28;20401;-56
2023/12/28 08:48:11;;;;;;;1.00;0.80;;;20.30;81.80;;;;;;5011204;28;20195;-59
2023/12/28 08:50:38;;;;;;;1.02;0.88;;;20.30;81.90;;;;;;5015598;28;20222;-60
2023/12/28 08:53:09;;;;;;;1.10;0.90;;;20.30;81.80;;;;;;5015292;28;20211;-59
2023/12/28 08:55:37;;;;;;;1.40;0.90;;;20.30;81.80;;;;;;5008953;28;20464;-58
2023/12/28 08:58:07;;;;;;;1.15;0.90;;;20.30;82.00;;;;;;5011839;28;20207;-58
2023/12/28 09:00:36;;;;;;;1.17;0.90;;;20.30;82.00;;;;;;5010472;28;20230;-58
2023/12/28 09:03:02;;;;;;;2.00;0.87;;;20.30;82.10;;;;;;5013271;28;20230;-57
2023/12/28 09:05:31;;;;;;;1.00;0.80;;;20.30;82.10;;;;;;5014302;28;20459;-59
2023/12/28 09:08:03;;;;;;;1.30;0.85;;;20.40;82.10;;;;;;5015484;28;20198;-58
2023/12/28 09:10:35;;;;;;;1.10;0.80;;;20.40;82.10;;;;;;5012997;28;20522;-57
2023/12/28 09:13:05;;;;;;;1.27;1.10;;;20.40;82.00;;;;;;5010717;28;20563;-57
2023/12/28 09:15:37;;;;;;;1.30;0.90;;;20.40;82.00;;;;;;5013816;28;20203;-58
2023/12/28 09:18:09;;;;;;;1.15;0.90;;;20.40;82.20;;;;;;5012528;28;20202;-56
2023/12/28 09:20:38;;;;;;;1.00;0.80;;;20.40;81.90;;;;;;5012236;28;20563;-59
2023/12/28 09:23:10;;;;;;;1.10;0.80;;;20.40;81.80;;;;;;5010270;28;20230;-57
2023/12/28 09:25:38;;;;;;;1.85;0.70;;;20.40;81.80;;;;;;5016315;28;20234;-56
2023/12/28 09:28:06;;;;;;;2.28;0.75;;;20.40;81.90;;;;;;5014826;28;20194;-57
2023/12/28 09:30:34;;;;;;;1.10;0.90;;;20.40;81.80;;;;;;5012910;28;20986;-58
2023/12/28 09:33:01;;;;;;;1.00;0.85;;;20.40;81.80;;;;;;5013291;28;20365;-59
2023/12/28 09:35:32;;;;;;;1.80;1.00;;;20.40;81.90;;;;;;5008626;28;20658;-56
2023/12/28 09:37:58;;;;;;;1.70;1.40;;;20.40;81.80;;;;;;5012761;28;20202;-58
2023/12/28 09:40:29;;;;;;;2.55;0.90;;;20.40;81.80;;;;;;5010872;28;20199;-58
2023/12/28 09:43:04;;;;;;;1.10;0.80;;;20.40;81.70;;;;;;5006560;28;20231;-58
2023/12/28 09:45:30;;;;;;;1.02;0.80;;;20.40;81.80;;;;;;5009806;28;20570;-56
2023/12/28 09:47:59;;;;;;;1.00;0.70;;;20.40;81.70;;;;;;5013901;28;20195;-57
2023/12/28 09:50:27;;;;;;;1.00;0.75;;;20.50;81.80;;;;;;5013995;28;20202;-57
2023/12/28 09:52:56;;;;;;;1.30;0.85;;;20.50;81.80;;;;;;5011446;28;20211;-56
2023/12/28 09:55:25;;;;;;;1.20;0.93;;;20.40;81.80;;;;;;5010686;28;20543;-53
2023/12/28 09:57:54;;;;;;;1.55;0.80;;;20.50;81.80;;;;;;5011173;28;20203;-59
2023/12/28 10:00:22;;;;;;;2.08;0.80;;;20.50;81.80;;;;;;5010379;28;20615;-58
2023/12/28 10:02:49;;;;;;;1.65;0.80;;;20.50;81.80;;;;;;5015143;28;20219;-57
2023/12/28 10:05:17;;;;;;;1.17;0.80;;;20.50;81.80;;;;;;5012700;28;20671;-57
2023/12/28 10:07:45;;;;;;;1.17;0.70;;;20.50;81.70;;;;;;5011721;28;20454;-58
2023/12/28 10:10:15;;;;;;;1.20;0.80;;;20.50;81.70;;;;;;5008757;28;20192;-58
2023/12/28 10:12:43;;;;;;;1.15;0.90;;;20.50;82.50;;;;;;5011882;28;20250;-57
2023/12/28 10:15:10;;;;;;;1.70;1.00;;;20.50;81.70;;;;;;5004605;28;20207;-58
2023/12/28 10:17:48;;;;;;;1.33;0.80;;;20.50;81.60;;;;;;5009484;28;20932;-59
2023/12/28 10:20:16;;;;;;;1.00;0.77;;;20.50;81.60;;;;;;5006345;28;20246;-57
2023/12/28 10:22:44;;;;;;;1.45;1.00;;;20.50;81.50;;;;;;5006692;28;20470;-58
2023/12/28 10:25:13;;;;;;;2.15;1.70;;;20.50;81.60;;;;;;5009937;28;20198;-58
2023/12/28 10:27:42;;;;;;;2.25;1.05;;;20.50;81.60;;;;;;5013747;28;20203;-58
2023/12/28 10:30:10;;;;;;;1.52;1.42;;;20.50;81.80;;;;;;4995862;28;20280;-55
2023/12/28 10:32:40;;;;;;;2.25;1.30;;;20.60;82.10;;;;;;5012451;28;20693;-58
2023/12/28 10:35:14;;;;;;;1.92;1.48;;;20.60;81.80;;;;;;5013423;28;20457;-59
2023/12/28 10:37:43;;;;;;;2.33;1.40;;;20.60;81.80;;;;;;5011294;28;20607;-57
2023/12/28 10:40:14;;;;;;;2.33;1.40;;;20.60;81.80;;;;;;5015762;28;20206;-59
2023/12/28 10:42:51;;;;;;;2.75;1.83;;;20.60;81.80;;;;;;5009106;28;20983;-56
2023/12/28 10:45:28;;;;;;;4.38;2.22;;;20.60;81.80;;;;;;5013335;28;20229;-59
2023/12/28 10:48:08;;;;;;;3.30;1.63;;;20.60;81.80;;;;;;5005480;28;20196;-58
2023/12/28 10:50:40;;;;;;;2.27;1.90;;;20.60;81.90;;;;;;5005420;28;20545;-57
2023/12/28 10:53:22;;;;;;;3.45;2.40;;;20.60;81.80;;;;;;5011064;28;20727;-58
2023/12/28 10:56:01;;;;;;;2.03;1.58;;;20.60;81.80;;;;;;5007002;28;20195;-57
2023/12/28 10:58:44;;;;;;;2.22;1.80;;;20.60;81.80;;;;;;5009063;28;20206;-58
2023/12/28 11:01:15;;;;;;;2.60;1.95;;;20.60;81.80;;;;;;5010751;28;20279;-59
2023/12/28 11:03:44;;;;;;;3.42;2.55;;;20.60;81.70;;;;;;5010845;28;20215;-60
2023/12/28 11:06:12;;;;;;;2.65;2.00;;;20.60;81.70;;;;;;5007203;28;20206;-58
2023/12/28 11:08:48;;;;;;;2.22;1.95;;;20.60;81.70;;;;;;5006684;28;20569;-58
2023/12/28 11:11:16;;;;;;;2.78;1.90;;;20.60;81.70;;;;;;5008829;28;20854;-57
2023/12/28 11:13:43;;;;;;;3.95;2.50;;;20.60;81.70;;;;;;5006559;28;20555;-59
2023/12/28 11:16:15;;;;;;;2.95;2.40;;;20.60;81.50;;;;;;5008017;28;20211;-58
2023/12/28 11:18:42;;;;;;;2.97;2.20;;;20.60;81.50;;;;;;5001755;28;20908;-55
2023/12/28 11:21:09;;;;;;;4.72;3.15;;;20.60;81.50;;;;;;5007099;28;20464;-57
2023/12/28 11:23:39;;;;;;;4.53;2.83;;;20.60;81.50;;;;;;5006006;28;20226;-56
2023/12/28 11:26:16;;;;;;;3.70;2.53;;;20.60;81.50;;;;;;5011041;28;20194;-54
2023/12/28 11:28:45;;;;;;;3.73;2.50;;;20.50;81.40;;;;;;5009072;28;20570;-56
2023/12/28 11:31:14;;;;;;;2.60;2.22;;;20.60;81.50;;;;;;5009760;28;20463;-56
2023/12/28 11:33:49;;;;;;;3.15;2.80;;;20.60;81.50;;;;;;4999076;28;20887;-53
2023/12/28 11:36:23;;;;;;;4.50;3.10;;;20.60;81.70;;;;;;5002078;28;20210;-58
2023/12/28 11:38:54;;;;;;;4.80;4.30;;;20.60;81.60;;;;;;5011964;28;21054;-57
2023/12/28 11:41:22;;;;;;;5.60;3.83;;;20.60;81.70;;;;;;5013258;28;20206;-55
2023/12/28 11:43:53;;;;;;;7.55;4.40;;;20.60;81.50;;;;;;5007045;28;20482;-65
2023/12/28 11:46:21;;;;;;;10.55;5.18;;;20.70;82.00;;;;;;5013088;28;20717;-64
2023/12/28 11:48:48;;;;;;;5.78;3.92;;;20.60;82.10;;;;;;5013393;28;20215;-68
2023/12/28 11:51:19;;;;;;;6.40;4.50;;;20.60;82.40;;;;;;5009430;28;20195;-66
2023/12/28 11:53:47;;;;;;;6.18;4.30;;;20.60;82.60;;;;;;5010028;28;20215;-66
2023/12/28 11:56:16;;;;;;;7.28;4.60;;;20.70;82.90;;;;;;5007603;28;20286;-67
2023/12/28 11:58:49;;;;;;;6.68;4.82;;;20.70;83.20;;;;;;5012377;28;20212;-69
2023/12/28 12:01:20;;;;;;;10.77;6.38;;;20.70;83.30;;;;;;5009436;28;20269;-64
2023/12/28 12:03:50;;;;;;;10.85;7.20;;;20.70;83.40;;;;;;5013488;28;20416;-66
2023/12/28 12:06:17;;;;;;;7.57;5.75;;;20.70;83.50;;;;;;5012460;28;20195;-63
2023/12/28 12:08:46;;;;;;;12.30;7.85;;;20.70;83.60;;;;;;5006860;28;20213;-61
2023/12/28 12:11:15;;;;;;;8.07;5.78;;;20.80;83.70;;;;;;5012380;28;20334;-63
2023/12/28 12:13:43;;;;;;;10.48;7.35;;;20.80;83.90;;;;;;5011078;28;20602;-55
2023/12/28 12:16:12;;;;;;;10.45;7.00;;;20.80;83.90;;;;;;5009010;28;20685;-60
2023/12/28 12:18:40;;;;;;;9.50;6.60;;;20.80;84.00;;;;;;5009241;28;20606;-52
2023/12/28 12:21:09;;;;;;;13.60;6.80;;;20.80;84.10;;;;;;5008360;28;20196;-58
2023/12/28 12:23:40;;;;;;;11.82;8.05;;;20.90;84.40;;;;;;5015294;28;20477;-59
2023/12/28 12:26:08;;;;;;;8.38;7.45;;;20.90;84.20;;;;;;5014549;28;20271;-57
2023/12/28 12:28:38;;;;;;;9.37;6.50;;;20.90;84.30;;;;;;5005179;28;20202;-59
2023/12/28 12:31:06;;;;;;;10.73;7.00;;;20.90;84.30;;;;;;5008950;28;20454;-60
2023/12/28 12:33:35;;;;;;;11.65;9.02;;;20.90;84.20;;;;;;5013329;28;20224;-60
2023/12/28 12:36:08;;;;;;;15.13;9.77;;;20.90;84.30;;;;;;5010634;28;20199;-60
2023/12/28 12:38:35;;;;;;;11.20;8.70;;;21.00;84.40;;;;;;5014672;28;20469;-56
2023/12/28 12:41:03;;;;;;;10.77;8.15;;;21.00;84.30;;;;;;5012081;28;20656;-59
2023/12/28 12:43:31;;;;;;;11.13;7.65;;;21.00;84.10;;;;;;5011291;28;20504;-57
2023/12/28 12:46:00;;;;;;;11.90;8.93;;;21.00;84.10;;;;;;5008168;28;20219;-62
2023/12/28 12:48:28;;;;;;;13.30;8.88;;;21.00;84.10;;;;;;5010423;28;20204;-62
2023/12/28 12:50:59;;;;;;;12.17;9.03;;;21.10;84.20;;;;;;5010428;28;20192;-59
2023/12/28 12:53:33;;;;;;;10.53;7.87;;;21.10;84.00;;;;;;5014515;28;20457;-63
2023/12/28 12:56:01;;;;;;;10.83;9.07;;;21.10;84.00;;;;;;5008715;28;20908;-58